Time;durP1;ratioP1;P1;durP2;ratioP2;P2;SDS_P1;SDS_P2;PMS_P1;PMS_P2;Temp;Humidity;BMP_temperature;BMP_pressure;BME280_temperature;BME280_humidity;BME280_pressure;Samples;Min_cycle;Max_cycle;Signal;HPM_P1;HPM_P2
2024/01/17 00:56:29;;;;;;;;;;;;;;;;;;;;;
2024/01/17 01:49:07;;;;;;;23.13;12.88;;;;;;;;;;4917561;29;20139;-86
2024/01/17 01:55:12;;;;;;;30.10;13.40;;;;;;;;;;4889057;29;20616;-86
2024/01/17 02:07:28;;;;;;;25.02;13.40;;;;;;;;;;4925675;23;20052;-86
2024/01/17 02:13:24;;;;;;;26.27;14.05;;;;;;;;;;4840552;29;20099;-85
2024/01/17 02:28:14;;;;;;;29.60;13.85;;;;;;;;;;4831362;29;20050;-84
2024/01/17 02:37:43;;;;;;;26.83;13.70;;;;;;;;;;4863354;29;20121;-84
2024/01/17 02:53:03;;;;;;;30.30;14.75;;;;;;;;;;4804062;29;20050;-82
2024/01/17 03:07:27;;;;;;;30.80;15.38;;;;;;;;;;4642669;26;20066;-85
2024/01/17 04:14:59;;;;;;;25.35;14.13;;;;;;;;;;4867937;29;20093;-84
2024/01/17 04:26:23;;;;;;;32.10;15.60;;;;;;;;;;4926257;29;20060;-81
2024/01/17 04:28:49;;;;;;;28.10;15.65;;;;;;;;;;4928394;29;20640;-81
2024/01/17 04:31:22;;;;;;;27.33;16.27;;;;;;;;;;4927782;29;20075;-81
2024/01/17 04:33:48;;;;;;;25.10;14.57;;;;;;;;;;4926741;29;20111;-81
2024/01/17 04:36:18;;;;;;;31.70;15.60;;;;;;;;;;4927184;29;20115;-81
2024/01/17 04:38:45;;;;;;;29.52;15.65;;;;;;;;;;4927035;29;20565;-81
2024/01/17 04:41:12;;;;;;;30.02;15.18;;;;;;;;;;4935080;29;20047;-80
2024/01/17 04:43:40;;;;;;;31.90;15.95;;;;;;;;;;4925886;29;20180;-80
2024/01/17 04:46:06;;;;;;;31.05;15.57;;;;;;;;;;4930632;29;20186;-81
2024/01/17 04:48:33;;;;;;;29.27;14.27;;;;;;;;;;4941681;29;20104;-81
2024/01/17 04:50:59;;;;;;;27.23;14.70;;;;;;;;;;4927185;29;20571;-81
2024/01/17 04:53:26;;;;;;;27.17;14.00;;;;;;;;;;4925781;29;20048;-81
2024/01/17 04:55:52;;;;;;;33.08;15.02;;;;;;;;;;4926088;29;20526;-82
2024/01/17 04:58:19;;;;;;;28.92;15.07;;;;;;;;;;4926722;29;20080;-82
2024/01/17 05:00:46;;;;;;;30.42;14.25;;;;;;;;;;4933426;29;20130;-82
2024/01/17 05:03:13;;;;;;;28.90;15.85;;;;;;;;;;4927488;29;20048;-82
2024/01/17 05:05:41;;;;;;;29.10;14.82;;;;;;;;;;4926393;29;20052;-81
2024/01/17 05:08:08;;;;;;;30.05;14.20;;;;;;;;;;4928412;29;20052;-81
2024/01/17 05:10:35;;;;;;;28.58;14.70;;;;;;;;;;4933375;29;20063;-81
2024/01/17 05:13:05;;;;;;;31.17;15.50;;;;;;;;;;4935177;29;20048;-82
2024/01/17 05:15:32;;;;;;;31.38;15.18;;;;;;;;;;4927236;29;20076;-82
2024/01/17 05:18:00;;;;;;;28.00;14.40;;;;;;;;;;4923186;29;20063;-81
2024/01/17 05:20:26;;;;;;;29.88;16.05;;;;;;;;;;4934505;29;20558;-81
2024/01/17 05:22:53;;;;;;;31.88;15.93;;;;;;;;;;4934839;29;20047;-81
2024/01/17 05:25:20;;;;;;;29.42;15.43;;;;;;;;;;4937379;29;20502;-81
2024/01/17 05:27:51;;;;;;;29.73;15.27;;;;;;;;;;4940437;29;20056;-79
2024/01/17 05:30:18;;;;;;;32.10;15.18;;;;;;;;;;4955273;29;20040;-80
2024/01/17 05:32:45;;;;;;;27.90;16.20;;;;;;;;;;4939048;29;20048;-80
2024/01/17 05:35:14;;;;;;;35.80;15.57;;;;;;;;;;4924303;29;20055;-81
2024/01/17 05:37:41;;;;;;;30.00;14.32;;;;;;;;;;4926335;29;20110;-82
2024/01/17 05:40:10;;;;;;;30.05;14.43;;;;;;;;;;4927963;29;20481;-81
2024/01/17 05:42:37;;;;;;;33.58;15.18;;;;;;;;;;4931945;29;20459;-81
2024/01/17 05:45:05;;;;;;;28.67;14.18;;;;;;;;;;4934113;29;20510;-82
2024/01/17 05:47:31;;;;;;;28.67;15.82;;;;;;;;;;4931587;29;20067;-81
2024/01/17 05:50:25;;;;;;;32.00;14.38;;;;;;;;;;4933835;29;20052;-81
2024/01/17 05:52:55;;;;;;;33.83;15.18;;;;;;;;;;4919531;29;20063;-82
2024/01/17 05:55:22;;;;;;;30.50;15.13;;;;;;;;;;4933675;29;20052;-81
2024/01/17 05:58:07;;;;;;;27.08;13.88;;;;;;;;;;4933939;29;20052;-82
2024/01/17 06:00:36;;;;;;;29.50;14.70;;;;;;;;;;4924259;29;20530;-81
2024/01/17 06:03:04;;;;;;;35.25;15.65;;;;;;;;;;4933559;29;20502;-79
2024/01/17 06:05:35;;;;;;;31.75;15.98;;;;;;;;;;4923589;29;20119;-81
2024/01/17 06:08:09;;;;;;;30.05;14.50;;;;;;;;;;4927940;29;20056;-82
2024/01/17 06:13:43;;;;;;;27.33;13.52;;;;;;;;;;4918931;29;20044;-81
2024/01/17 06:16:12;;;;;;;22.38;13.80;;;;;;;;;;4925115;29;20068;-81
2024/01/17 06:18:39;;;;;;;27.60;13.05;;;;;;;;;;4924554;29;20048;-83
2024/01/17 06:21:06;;;;;;;27.50;13.85;;;;;;;;;;4924842;29;20138;-81
2024/01/17 06:23:34;;;;;;;27.88;14.52;;;;;;;;;;4911465;29;20056;-81
2024/01/17 06:26:00;;;;;;;30.90;15.38;;;;;;;;;;4942266;23;20112;-80
2024/01/17 06:28:27;;;;;;;25.10;13.70;;;;;;;;;;4916876;29;20049;-81
2024/01/17 06:30:53;;;;;;;25.77;13.27;;;;;;;;;;4915762;29;20051;-80
2024/01/17 06:33:26;;;;;;;28.70;14.82;;;;;;;;;;4917782;29;20056;-81
2024/01/17 06:35:53;;;;;;;28.05;13.75;;;;;;;;;;4918285;29;20077;-81
2024/01/17 06:41:07;;;;;;;24.95;12.75;;;;;;;;;;4934131;29;20059;-85
2024/01/17 06:43:43;;;;;;;26.70;13.65;;;;;;;;;;4929039;29;20529;-83
2024/01/17 06:46:15;;;;;;;25.25;12.63;;;;;;;;;;4917879;29;20131;-84
2024/01/17 06:48:44;;;;;;;25.15;13.60;;;;;;;;;;4949831;29;20062;-83
2024/01/17 06:51:13;;;;;;;25.15;13.82;;;;;;;;;;4944254;29;20052;-83
2024/01/17 06:54:03;;;;;;;25.50;13.93;;;;;;;;;;4937902;29;20055;-82
2024/01/17 06:57:00;;;;;;;28.00;13.82;;;;;;;;;;4923960;29;20084;-83
2024/01/17 06:59:55;;;;;;;28.83;13.95;;;;;;;;;;4928038;29;20075;-83
2024/01/17 07:02:27;;;;;;;27.27;13.30;;;;;;;;;;4930320;29;20055;-83
2024/01/17 09:32:22;;;;;;;23.80;12.30;;;;;;;;;;4742566;30;20057;-87
2024/01/17 10:56:48;;;;;;;23.42;12.43;;;;;;;;;;4857499;29;20068;-84
2024/01/17 12:02:16;;;;;;;;;;;;;;;;;;;;;
2024/01/17 14:13:42;;;;;;;42.38;22.27;;;;;;;;;;4942845;28;20057;-84
2024/01/17 14:16:24;;;;;;;42.63;23.33;;;;;;;;;;4984108;28;20047;-84
2024/01/17 14:18:59;;;;;;;44.07;22.40;;;;;;;;;;4983349;28;20055;-85
2024/01/17 14:24:20;;;;;;;45.63;22.70;;;;;;;;;;4982412;28;20167;-85
2024/01/17 14:27:10;;;;;;;46.90;23.33;;;;;;;;;;4985722;28;20485;-84
2024/01/17 14:29:44;;;;;;;40.03;22.63;;;;;;;;;;4989688;28;20053;-85
2024/01/17 14:35:09;;;;;;;49.90;25.40;;;;;;;;;;4982826;28;20114;-81
2024/01/17 14:37:52;;;;;;;51.97;25.80;;;;;;;;;;4988511;28;20050;-83
2024/01/17 14:40:27;;;;;;;45.75;26.58;;;;;;;;;;4980632;28;20121;-85
2024/01/17 14:43:08;;;;;;;42.85;25.02;;;;;;;;;;4982013;28;20059;-84
2024/01/17 14:45:46;;;;;;;46.22;25.13;;;;;;;;;;4958165;28;20070;-85
2024/01/17 14:48:35;;;;;;;44.28;24.65;;;;;;;;;;4980001;28;20051;-85
2024/01/17 14:51:27;;;;;;;47.38;24.98;;;;;;;;;;4982900;28;20054;-85
2024/01/17 14:54:04;;;;;;;46.58;25.10;;;;;;;;;;4980476;28;20046;-85
2024/01/17 14:56:47;;;;;;;51.42;26.13;;;;;;;;;;4980186;28;20453;-83
2024/01/17 14:59:43;;;;;;;42.75;24.65;;;;;;;;;;4982406;28;20469;-85
2024/01/17 15:02:34;;;;;;;44.67;24.05;;;;;;;;;;4982489;28;20537;-84
2024/01/17 15:05:16;;;;;;;49.58;25.25;;;;;;;;;;4983187;28;20190;-85
2024/01/17 15:10:38;;;;;;;41.78;23.30;;;;;;;;;;4982496;28;20047;-84
2024/01/17 15:13:30;;;;;;;45.40;24.05;;;;;;;;;;4983146;28;20070;-84
2024/01/17 15:16:11;;;;;;;41.03;23.80;;;;;;;;;;4983053;28;20061;-84
2024/01/17 15:30:55;;;;;;;39.80;23.13;;;;;;;;;;4959773;29;19920;-84
2024/01/17 15:54:56;;;;;;;52.38;24.85;;;;;;;;;;4974009;28;20050;-86
2024/01/17 16:06:50;;;;;;;40.83;23.05;;;;;;;;;;4958869;28;20057;-83
2024/01/17 16:09:34;;;;;;;44.47;23.98;;;;;;;;;;4985144;28;20515;-85
2024/01/17 16:12:23;;;;;;;45.22;23.42;;;;;;;;;;4985531;28;20301;-86
2024/01/17 16:14:52;;;;;;;45.10;24.30;;;;;;;;;;4980749;28;20473;-86
2024/01/17 16:17:21;;;;;;;43.17;22.67;;;;;;;;;;4987568;28;20142;-86
2024/01/17 16:19:50;;;;;;;46.03;22.33;;;;;;;;;;4985877;28;20043;-87
2024/01/17 16:22:21;;;;;;;43.15;21.90;;;;;;;;;;4985687;28;20117;-87
2024/01/17 16:24:50;;;;;;;39.15;21.50;;;;;;;;;;4980393;28;20059;-86
2024/01/17 16:33:48;;;;;;;42.88;22.65;;;;;;;;;;4935714;28;20489;-85
2024/01/17 17:06:21;;;;;;;42.13;22.25;;;;;;;;;;4889370;29;20036;-87
2024/01/17 17:24:32;;;;;;;43.70;22.48;;;;;;;;;;4945667;29;20074;-86
2024/01/17 17:27:26;;;;;;;38.40;19.25;;;;;;;;;;4944976;29;20055;-87
2024/01/17 17:35:40;;;;;;;40.03;20.67;;;;;;;;;;4908994;29;20102;-87
2024/01/17 17:41:39;;;;;;;45.42;23.00;;;;;;;;;;4919512;29;20063;-88
2024/01/17 17:44:37;;;;;;;45.67;23.50;;;;;;;;;;4944985;29;20055;-88
2024/01/17 17:58:53;;;;;;;42.05;24.67;;;;;;;;;;4909263;29;20507;-87
2024/01/17 18:26:32;;;;;;;31.15;17.23;;;;;;;;;;4839060;29;20064;-79
2024/01/17 18:44:49;;;;;;;24.25;14.88;;;;;;;;;;4896907;29;20077;-81
2024/01/17 18:54:16;;;;;;;22.67;14.00;;;;;;;;;;4818099;29;20082;-84
2024/01/17 19:00:33;;;;;;;22.15;13.60;;;;;;;;;;4898847;29;20044;-82
2024/01/17 19:59:10;;;;;;;27.10;16.25;;;;;;;;;;4836631;29;20745;-80
2024/01/17 20:08:05;;;;;;;27.15;15.27;;;;;;;;;;4827143;29;20556;-81
2024/01/17 20:15:11;;;;;;;;;;;;;;;;;;;;;
2024/01/17 20:27:19;;;;;;;27.10;15.88;;;;;;;;;;4908657;29;20219;-84
2024/01/17 20:29:45;;;;;;;26.20;16.88;;;;;;;;;;4961117;29;20057;-83
2024/01/17 20:32:13;;;;;;;27.48;16.95;;;;;;;;;;4958363;29;20071;-82
2024/01/17 20:34:39;;;;;;;22.88;14.77;;;;;;;;;;4954593;29;20062;-83
2024/01/17 20:37:05;;;;;;;29.58;17.60;;;;;;;;;;4960956;29;20086;-80
2024/01/17 20:39:32;;;;;;;30.08;16.70;;;;;;;;;;4958256;29;20107;-82
2024/01/17 20:41:59;;;;;;;29.35;17.77;;;;;;;;;;4958221;29;20039;-82
2024/01/17 20:44:26;;;;;;;32.35;17.25;;;;;;;;;;4954150;29;20119;-84
2024/01/17 20:46:53;;;;;;;35.55;18.50;;;;;;;;;;4961289;29;20079;-82
2024/01/17 20:49:25;;;;;;;32.13;18.08;;;;;;;;;;4961133;29;20079;-83
2024/01/17 20:51:54;;;;;;;31.98;18.40;;;;;;;;;;4963244;29;20485;-81
2024/01/17 20:54:20;;;;;;;30.15;17.77;;;;;;;;;;4964819;29;20055;-83
2024/01/17 20:56:49;;;;;;;30.10;18.95;;;;;;;;;;4964289;29;20143;-81
2024/01/17 20:59:18;;;;;;;27.85;18.60;;;;;;;;;;4955771;29;20078;-83
2024/01/17 21:01:51;;;;;;;31.02;19.80;;;;;;;;;;4953609;29;20055;-80
2024/01/17 21:04:18;;;;;;;29.40;18.15;;;;;;;;;;4962820;29;20106;-80
2024/01/17 21:06:45;;;;;;;26.75;16.58;;;;;;;;;;4958443;29;20548;-81
2024/01/17 21:09:15;;;;;;;31.58;19.25;;;;;;;;;;4962017;29;20055;-80
2024/01/17 21:11:41;;;;;;;31.40;18.05;;;;;;;;;;4962334;29;20043;-81
2024/01/17 21:14:11;;;;;;;28.77;18.27;;;;;;;;;;4955400;29;20055;-82
2024/01/17 21:16:38;;;;;;;34.92;19.50;;;;;;;;;;4955659;29;20058;-81
2024/01/17 21:19:15;;;;;;;34.55;20.58;;;;;;;;;;4958227;29;20058;-81
2024/01/17 21:21:44;;;;;;;37.60;22.05;;;;;;;;;;4958484;29;20588;-81
2024/01/17 21:24:13;;;;;;;36.03;21.65;;;;;;;;;;4964414;29;20083;-81
2024/01/17 21:42:27;;;;;;;43.05;26.25;;;;;;;;;;4885148;29;20057;-82
2024/01/17 22:07:15;;;;;;;50.17;28.75;;;;;;;;;;4820767;29;20591;-81
2024/01/17 22:29:20;;;;;;;59.40;29.00;;;;;;;;;;4904002;29;20059;-80
2024/01/17 22:32:09;;;;;;;56.67;28.13;;;;;;;;;;4898477;29;20056;-83
2024/01/17 22:35:25;;;;;;;62.25;32.20;;;;;;;;;;4901521;29;20084;-82
2024/01/17 22:40:58;;;;;;;64.68;32.50;;;;;;;;;;4895390;28;20564;-82
2024/01/17 23:15:07;;;;;;;;;;;;;;;;;;;;;
2024/01/17 23:58:36;;;;;;;45.40;25.05;;;;;;;;;;4900027;29;20060;-82
